KDFW

Dallas-Fort Worth International Airport

Dallas-Fort Worth, Texas, USA
METAR KDFW 210653Z 00000KT 10SM OVC250 22/18 A2999 RMK AO2 SLP147 T02170183 $
Observed Flight Rules
May-21 @ 06:53 UTC (19 minutes ago) Visual Flight Rules
Visibility Clouds
10 miles
  • Overcast at 25,000' AGL
Temperatures Readings
Current 22°C / 72°F
Dewpoint 18°C / 64°F
Humidity 78%
Altimeter 29.99" Hg
Pressure 1014.7 hPa
Elevation 174
METAR KDFW 210653Z 00000KT 10SM OVC250 22/18 A2999 RMK AO2 SLP147 T02170183 $
Observed Flight Rules
May-21 @ 06:53 UTC
(19 minutes ago)
VFR
Clouds
  • Overcast at 25,000' AGL
Temperature Dewpoint
22°C / 72°F 18°C / 64°F
Humidity Altimeter Pressure
78% 29.99" Hg 1014.7 hPa